createdAt,value
2023-06-06T00:05:09.041Z,5.10
2023-06-06T00:15:36.378Z,4.50
2023-06-06T00:26:02.720Z,5.50
2023-06-06T00:36:28.250Z,6.80
2023-06-06T00:46:57.439Z,7.10
2023-06-06T00:57:25.199Z,4.30
2023-06-06T01:07:52.255Z,5.20
2023-06-06T01:18:19.785Z,6.70
2023-06-06T01:28:45.698Z,3.90
2023-06-06T01:39:16.502Z,3.10
2023-06-06T01:49:43.338Z,5.20
2023-06-06T02:00:12.174Z,4.30
2023-06-06T02:10:38.708Z,2.90
2023-06-06T02:21:04.527Z,3.90
2023-06-06T02:31:30.415Z,4.90
2023-06-06T02:41:56.474Z,3.80
2023-06-06T02:52:23.331Z,7.40
2023-06-06T03:02:49.102Z,5.40
2023-06-06T03:13:15.277Z,5.20
2023-06-06T03:23:41.130Z,3.90
2023-06-06T03:34:06.915Z,5.60
2023-06-06T03:44:32.705Z,3.80
2023-06-06T03:54:58.538Z,4.40
2023-06-06T04:05:24.831Z,6.20
2023-06-06T04:15:50.693Z,5.60
2023-06-06T04:26:26.201Z,5.50
2023-06-06T04:36:53.025Z,6.30
2023-06-06T04:47:20.847Z,5.60
2023-06-06T04:57:46.924Z,9.60
2023-06-06T05:08:13.135Z,4.70
2023-06-06T05:18:38.861Z,5.50
2023-06-06T05:29:04.688Z,6.60
2023-06-06T05:39:30.352Z,7.60
2023-06-06T05:49:56.684Z,5.00
2023-06-06T06:00:22.921Z,5.90
2023-06-06T06:10:48.903Z,6.00
2023-06-06T06:21:14.200Z,5.00
2023-06-06T06:31:40.575Z,7.40
2023-06-06T06:42:08.343Z,6.10
2023-06-06T06:52:37.270Z,5.20
2023-06-06T07:03:05.193Z,5.30
2023-06-06T07:13:32.669Z,5.40
2023-06-06T07:24:01.605Z,6.20
2023-06-06T07:34:28.075Z,4.50
2023-06-06T07:44:57.118Z,7.90
2023-06-06T07:55:26.093Z,7.70
2023-06-06T08:05:52.175Z,7.40
2023-06-06T08:16:18.591Z,8.90
2023-06-06T08:26:44.703Z,7.90
2023-06-06T08:37:10.610Z,8.20
2023-06-06T08:47:37.601Z,7.70
2023-06-06T08:58:04.542Z,5.50
2023-06-06T09:08:30.327Z,6.00
2023-06-06T09:18:58.147Z,6.90
2023-06-06T09:29:24.658Z,8.90
2023-06-06T09:40:11.996Z,6.70
2023-06-06T09:50:38.092Z,7.00
2023-06-06T10:01:05.105Z,8.30
2023-06-06T10:11:31.836Z,8.80
2023-06-06T10:21:59.490Z,7.20
2023-06-06T10:32:35.099Z,9.20
2023-06-06T10:43:00.966Z,6.90
2023-06-06T10:53:26.859Z,7.20
2023-06-06T11:03:55.536Z,9.30
2023-06-06T11:14:25.437Z,7.30
2023-06-06T11:24:52.065Z,6.60
2023-06-06T11:35:20.869Z,7.70
2023-06-06T11:45:46.629Z,9.70
2023-06-06T11:56:18.341Z,9.50
2023-06-06T12:06:50.178Z,7.60
2023-06-06T12:17:17.940Z,4.20
2023-06-06T12:27:46.926Z,5.40
2023-06-06T12:38:21.178Z,4.70
2023-06-06T12:48:46.750Z,4.50
2023-06-06T12:59:13.468Z,4.60
2023-06-06T13:09:39.856Z,5.00
2023-06-06T13:20:08.298Z,4.00
2023-06-06T13:30:34.844Z,4.10
2023-06-06T13:41:01.014Z,5.30
2023-06-06T13:51:26.668Z,7.00
2023-06-06T14:01:53.817Z,5.90
2023-06-06T14:12:19.668Z,5.40
2023-06-06T14:22:45.856Z,4.90
2023-06-06T14:33:12.095Z,4.40
2023-06-06T14:43:38.237Z,3.20
2023-06-06T14:54:04.690Z,3.50
2023-06-06T15:04:36.997Z,3.60
2023-06-06T15:15:04.003Z,3.50
2023-06-06T15:25:30.099Z,5.60
2023-06-06T15:35:57.647Z,6.90
2023-06-06T15:46:24.109Z,4.50
2023-06-06T15:56:49.645Z,5.50
2023-06-06T16:07:17.233Z,4.90
2023-06-06T16:17:43.557Z,4.70
2023-06-06T16:28:09.499Z,6.70
2023-06-06T16:38:35.278Z,5.40
2023-06-06T16:49:01.007Z,5.40
2023-06-06T16:59:26.523Z,5.40
2023-06-06T17:09:53.506Z,5.30
2023-06-06T17:20:19.656Z,5.30
2023-06-06T17:30:52.463Z,7.00
2023-06-06T17:41:18.498Z,5.90
2023-06-06T17:51:44.527Z,8.00
2023-06-06T18:02:11.462Z,6.70
2023-06-06T18:23:01.507Z,7.80
2023-06-06T18:33:27.528Z,6.70
2023-06-06T18:43:53.315Z,6.50
2023-06-06T18:54:20.682Z,10.50
2023-06-06T19:04:49.995Z,9.60
2023-06-06T19:15:16.482Z,7.80
2023-06-06T19:25:42.220Z,7.10
2023-06-06T19:36:08.609Z,6.80
2023-06-06T19:46:34.216Z,7.90
2023-06-06T19:57:00.165Z,10.30
2023-06-06T20:07:25.746Z,8.70
2023-06-06T20:17:51.154Z,9.00
2023-06-06T20:28:17.224Z,10.30
2023-06-06T20:38:51.154Z,10.90
2023-06-06T20:49:17.259Z,9.00
2023-06-06T20:59:42.641Z,9.20
2023-06-06T21:10:10.120Z,8.90
2023-06-06T21:20:36.898Z,9.20
2023-06-06T21:31:03.042Z,9.40
2023-06-06T21:41:28.898Z,10.50
2023-06-06T21:51:54.999Z,9.10
2023-06-06T22:02:21.445Z,11.50
2023-06-06T22:12:47.144Z,11.30
2023-06-06T22:23:12.905Z,9.90
2023-06-06T22:33:38.895Z,10.40
2023-06-06T22:44:04.796Z,11.00
2023-06-06T22:54:31.090Z,11.80
2023-06-06T23:04:56.471Z,11.60
2023-06-06T23:15:23.500Z,12.90
2023-06-06T23:25:49.082Z,10.40
2023-06-06T23:36:16.290Z,11.60
2023-06-06T23:57:06.861Z,13.00
